Time;durP1;ratioP1;P1;durP2;ratioP2;P2;SDS_P1;SDS_P2;PMS_P1;PMS_P2;Temp;Humidity;BMP_temperature;BMP_pressure;BME280_temperature;BME280_humidity;BME280_pressure;Samples;Min_cycle;Max_cycle;Signal;HPM_P1;HPM_P2
2022/03/28 00:00:25;;;;;;;5.40;1.00;;;6.40;99.90;;;;;;4976885;28;20132;-77
2022/03/28 00:02:51;;;;;;;6.00;0.95;;;6.40;99.90;;;;;;5010443;28;20037;-77
2022/03/28 00:05:17;;;;;;;6.82;1.02;;;6.30;99.90;;;;;;4972987;28;20033;-77
2022/03/28 00:07:43;;;;;;;6.10;1.52;;;6.30;99.90;;;;;;4983529;28;20034;-77
2022/03/28 00:10:10;;;;;;;8.55;0.73;;;6.30;99.90;;;;;;4993762;28;20355;-77
2022/03/28 00:12:38;;;;;;;3.47;0.60;;;6.30;99.90;;;;;;5009727;28;20040;-77
2022/03/28 00:15:05;;;;;;;5.30;1.00;;;6.30;99.90;;;;;;5011385;28;20056;-77
2022/03/28 00:17:32;;;;;;;4.60;0.90;;;6.40;99.90;;;;;;4993548;28;20030;-77
2022/03/28 00:19:59;;;;;;;10.75;1.58;;;6.40;99.90;;;;;;5011079;28;20050;-77
2022/03/28 00:22:24;;;;;;;7.30;1.67;;;6.40;99.90;;;;;;5010123;28;20025;-77
2022/03/28 00:24:50;;;;;;;4.03;0.57;;;6.30;99.90;;;;;;4993869;28;20504;-77
2022/03/28 00:27:17;;;;;;;4.20;0.85;;;6.20;99.90;;;;;;4976988;28;20041;-77
2022/03/28 00:29:43;;;;;;;7.93;1.27;;;6.20;99.90;;;;;;5011051;28;20120;-77
2022/03/28 00:32:10;;;;;;;7.78;0.80;;;6.20;99.90;;;;;;5004239;28;20375;-77
2022/03/28 00:34:36;;;;;;;7.60;1.15;;;6.20;99.90;;;;;;5011023;28;20037;-77
2022/03/28 00:37:02;;;;;;;5.25;0.68;;;6.20;99.90;;;;;;4994689;28;20083;-76
2022/03/28 00:39:28;;;;;;;6.35;0.75;;;6.20;99.90;;;;;;5009913;28;20144;-76
2022/03/28 00:41:54;;;;;;;10.02;0.70;;;6.10;99.90;;;;;;4992882;28;20044;-77
2022/03/28 00:44:19;;;;;;;6.32;0.60;;;6.20;99.90;;;;;;4992132;28;20670;-77
2022/03/28 00:46:46;;;;;;;8.77;0.98;;;6.10;99.90;;;;;;4993343;28;20033;-79
2022/03/28 00:49:11;;;;;;;8.65;1.00;;;6.10;99.90;;;;;;4972259;28;20034;-77
2022/03/28 00:51:37;;;;;;;10.23;1.20;;;6.10;99.90;;;;;;4992544;28;20041;-77
2022/03/28 00:54:03;;;;;;;9.90;1.30;;;6.10;99.90;;;;;;5008702;28;20058;-78
2022/03/28 00:56:29;;;;;;;3.85;0.90;;;6.00;99.90;;;;;;4998573;28;20021;-77
2022/03/28 00:58:55;;;;;;;4.85;0.73;;;5.90;99.90;;;;;;4992831;28;20394;-77
2022/03/28 01:01:21;;;;;;;6.38;0.63;;;5.90;99.90;;;;;;4995904;28;20037;-76
2022/03/28 01:03:47;;;;;;;7.72;1.08;;;5.90;99.90;;;;;;4993115;28;20549;-77
2022/03/28 01:06:13;;;;;;;9.38;0.90;;;6.00;99.90;;;;;;5008812;28;20091;-78
2022/03/28 01:08:38;;;;;;;7.82;0.55;;;6.00;99.90;;;;;;4994013;28;20033;-77
2022/03/28 01:11:09;;;;;;;5.82;0.90;;;5.90;99.90;;;;;;4991918;28;20026;-77
2022/03/28 01:13:36;;;;;;;7.63;0.68;;;5.90;99.90;;;;;;4993581;28;20390;-77
2022/03/28 01:16:03;;;;;;;8.35;0.70;;;6.00;99.90;;;;;;5008454;28;20036;-77
2022/03/28 01:18:29;;;;;;;8.82;0.70;;;6.00;99.90;;;;;;4977004;28;20044;-77
2022/03/28 01:20:56;;;;;;;3.58;0.68;;;6.00;99.90;;;;;;4992619;28;20041;-77
2022/03/28 01:23:22;;;;;;;10.77;0.73;;;6.00;99.90;;;;;;5009243;28;20037;-77
2022/03/28 01:25:51;;;;;;;7.45;1.00;;;6.00;99.90;;;;;;5008953;28;20030;-77
2022/03/28 01:28:17;;;;;;;8.05;1.25;;;6.00;99.90;;;;;;5010707;28;20022;-77
2022/03/28 01:30:43;;;;;;;7.07;0.77;;;6.00;99.90;;;;;;4977429;28;20037;-77
2022/03/28 01:33:09;;;;;;;6.55;0.70;;;5.90;99.90;;;;;;5008875;28;20025;-78
2022/03/28 01:35:37;;;;;;;11.88;1.05;;;5.80;99.90;;;;;;5010694;28;20178;-77
2022/03/28 01:38:05;;;;;;;8.02;1.00;;;5.90;99.90;;;;;;4991558;28;20033;-77
2022/03/28 01:40:32;;;;;;;10.63;0.73;;;5.80;99.90;;;;;;5008727;28;20049;-78
2022/03/28 01:42:58;;;;;;;9.43;1.20;;;5.80;99.90;;;;;;4975422;28;20121;-77
2022/03/28 01:45:24;;;;;;;6.03;0.65;;;5.80;99.90;;;;;;4993059;28;20021;-77
2022/03/28 01:47:50;;;;;;;5.88;0.73;;;5.80;99.90;;;;;;5008917;28;20549;-77
2022/03/28 01:50:17;;;;;;;9.00;0.93;;;5.70;99.90;;;;;;5010426;28;22373;-78
2022/03/28 01:52:43;;;;;;;9.98;1.50;;;5.70;99.90;;;;;;4970770;28;20080;-77
2022/03/28 01:55:09;;;;;;;9.85;1.75;;;5.70;99.90;;;;;;4992726;28;20675;-77
2022/03/28 01:57:37;;;;;;;9.23;1.10;;;5.70;99.90;;;;;;4992042;28;20030;-77
2022/03/28 02:00:06;;;;;;;6.45;1.00;;;5.60;99.90;;;;;;5009291;28;20486;-77
2022/03/28 02:02:35;;;;;;;6.53;0.80;;;5.60;99.90;;;;;;4995444;28;20057;-77
2022/03/28 02:05:00;;;;;;;6.57;1.35;;;5.60;99.90;;;;;;5000694;28;20124;-76
2022/03/28 02:07:26;;;;;;;9.43;0.60;;;5.60;99.90;;;;;;5015782;28;20130;-77
2022/03/28 02:09:51;;;;;;;4.72;0.70;;;5.60;99.90;;;;;;4999165;28;20030;-77
2022/03/28 02:12:17;;;;;;;7.68;0.88;;;5.60;99.90;;;;;;4998213;28;20494;-76
2022/03/28 02:14:43;;;;;;;6.78;0.98;;;5.60;99.90;;;;;;5010621;28;20072;-77
2022/03/28 02:17:09;;;;;;;10.25;1.05;;;5.50;99.90;;;;;;4999708;28;21298;-77
2022/03/28 02:19:35;;;;;;;10.90;1.00;;;5.50;99.90;;;;;;4999822;28;20032;-77
2022/03/28 02:22:01;;;;;;;6.32;1.23;;;5.50;99.90;;;;;;5016559;28;20040;-77
2022/03/28 02:24:26;;;;;;;7.30;1.10;;;5.40;99.90;;;;;;4980613;28;20033;-78
2022/03/28 02:26:52;;;;;;;10.57;1.30;;;5.40;99.90;;;;;;4999530;28;20033;-77
2022/03/28 02:29:18;;;;;;;6.25;0.60;;;5.30;99.90;;;;;;5015156;28;20045;-76
2022/03/28 02:31:43;;;;;;;14.32;2.53;;;5.30;99.90;;;;;;4998692;28;20032;-77
2022/03/28 02:34:09;;;;;;;13.52;1.70;;;5.40;99.90;;;;;;4981526;28;20042;-77
2022/03/28 02:36:34;;;;;;;11.20;1.45;;;5.40;99.90;;;;;;4998396;28;20040;-76
2022/03/28 02:39:00;;;;;;;10.50;1.35;;;5.40;99.90;;;;;;4998356;28;20043;-76
2022/03/28 02:41:26;;;;;;;8.70;0.90;;;5.30;99.90;;;;;;5003612;28;20045;-76
2022/03/28 02:43:52;;;;;;;10.65;0.80;;;5.30;99.90;;;;;;4998170;28;22318;-78
2022/03/28 02:46:18;;;;;;;9.00;2.15;;;5.30;99.90;;;;;;4981751;28;20041;-77
2022/03/28 02:48:44;;;;;;;10.20;1.70;;;5.30;99.90;;;;;;4994366;28;20179;-78
2022/03/28 02:51:09;;;;;;;6.45;1.60;;;5.20;99.90;;;;;;5013638;28;20038;-77
2022/03/28 02:53:35;;;;;;;8.55;1.25;;;5.20;99.90;;;;;;4997530;28;20049;-77
2022/03/28 02:56:01;;;;;;;8.43;1.08;;;5.20;99.90;;;;;;4982110;28;20022;-76
2022/03/28 02:58:26;;;;;;;7.28;0.80;;;5.20;99.90;;;;;;4998002;28;20393;-77
2022/03/28 03:00:52;;;;;;;7.25;0.90;;;5.10;99.90;;;;;;5003811;28;20052;-77
2022/03/28 03:03:17;;;;;;;7.53;0.80;;;5.10;99.90;;;;;;5003395;28;20033;-77
2022/03/28 03:05:43;;;;;;;3.33;0.70;;;5.10;99.90;;;;;;5015354;28;20037;-77
2022/03/28 03:08:09;;;;;;;6.63;0.82;;;5.10;99.90;;;;;;5009936;28;20029;-78
2022/03/28 03:10:34;;;;;;;8.55;1.20;;;5.10;99.90;;;;;;4998267;28;20069;-79
2022/03/28 03:13:00;;;;;;;8.10;1.20;;;5.00;99.90;;;;;;4996530;28;20041;-76
2022/03/28 03:15:26;;;;;;;8.57;1.10;;;5.00;99.90;;;;;;4993307;28;20039;-77
2022/03/28 03:17:52;;;;;;;6.50;1.40;;;5.00;99.90;;;;;;5013173;28;20084;-76
2022/03/28 03:20:17;;;;;;;6.70;0.90;;;5.00;99.90;;;;;;5011126;28;20468;-76
2022/03/28 03:22:43;;;;;;;7.50;0.90;;;5.00;99.90;;;;;;5001052;28;20425;-77
2022/03/28 03:25:09;;;;;;;6.03;1.10;;;4.90;99.90;;;;;;4996093;28;20042;-77
2022/03/28 03:27:38;;;;;;;6.88;1.23;;;4.80;99.90;;;;;;4994805;28;20276;-77
2022/03/28 03:30:10;;;;;;;7.47;1.30;;;4.80;99.90;;;;;;4994771;28;20029;-77
2022/03/28 03:32:36;;;;;;;6.32;1.00;;;4.80;99.90;;;;;;4995967;28;20386;-76
2022/03/28 03:35:03;;;;;;;5.32;0.90;;;4.70;99.90;;;;;;5010191;28;20072;-77
2022/03/28 03:37:29;;;;;;;10.35;1.50;;;4.80;99.90;;;;;;5012138;28;20029;-77
2022/03/28 03:39:55;;;;;;;7.70;1.13;;;4.80;99.90;;;;;;4995852;28;20041;-77
2022/03/28 03:42:20;;;;;;;6.60;1.40;;;4.70;99.90;;;;;;5011808;28;20038;-77
2022/03/28 03:44:46;;;;;;;5.28;0.88;;;4.70;99.90;;;;;;4978221;28;20033;-77
2022/03/28 03:47:11;;;;;;;6.53;1.25;;;4.70;99.90;;;;;;4994910;28;20053;-76
2022/03/28 03:49:37;;;;;;;8.57;1.20;;;4.60;99.90;;;;;;4999170;28;20052;-78
2022/03/28 03:52:03;;;;;;;6.25;1.30;;;4.60;99.90;;;;;;5012115;28;20378;-77
2022/03/28 03:54:30;;;;;;;6.60;1.10;;;4.60;99.90;;;;;;4993695;28;20041;-76
2022/03/28 03:56:55;;;;;;;6.43;1.17;;;4.50;99.90;;;;;;4994759;28;20422;-77
2022/03/28 03:59:21;;;;;;;4.20;0.70;;;4.50;99.90;;;;;;5000014;28;20125;-76
2022/03/28 04:01:46;;;;;;;7.28;0.90;;;4.50;99.90;;;;;;5006630;28;20034;-77
2022/03/28 04:04:12;;;;;;;5.45;0.98;;;4.50;99.90;;;;;;4992836;28;20036;-77
2022/03/28 04:06:39;;;;;;;5.78;1.23;;;4.50;99.90;;;;;;5012727;28;20052;-77
2022/03/28 04:09:05;;;;;;;6.78;1.05;;;4.40;99.90;;;;;;4994156;28;20038;-78
2022/03/28 04:11:30;;;;;;;8.52;1.33;;;4.40;99.90;;;;;;4993019;28;20034;-77
2022/03/28 04:13:57;;;;;;;5.35;0.93;;;4.40;99.90;;;;;;4972713;28;20043;-78
2022/03/28 04:16:23;;;;;;;4.10;1.00;;;4.40;99.90;;;;;;4988402;28;20630;-76
2022/03/28 04:18:49;;;;;;;5.47;1.33;;;4.30;99.90;;;;;;4993311;28;20022;-77
2022/03/28 04:21:15;;;;;;;4.32;0.93;;;4.30;99.90;;;;;;4996764;28;20512;-77
2022/03/28 04:23:40;;;;;;;4.72;1.27;;;4.30;99.90;;;;;;4994147;28;20500;-77
2022/03/28 04:26:06;;;;;;;6.05;1.10;;;4.30;99.90;;;;;;4992157;28;20030;-78
2022/03/28 04:28:31;;;;;;;3.88;0.80;;;4.20;99.90;;;;;;5012304;28;20025;-77
2022/03/28 04:30:57;;;;;;;6.43;0.98;;;4.20;99.90;;;;;;4977817;28;20150;-78
2022/03/28 04:33:23;;;;;;;4.57;0.88;;;4.20;99.90;;;;;;4992823;28;20401;-77
2022/03/28 04:35:48;;;;;;;6.20;1.17;;;4.10;99.90;;;;;;4994383;28;20132;-78
2022/03/28 04:38:14;;;;;;;5.97;1.00;;;4.10;99.90;;;;;;4993500;28;20100;-76
2022/03/28 04:40:40;;;;;;;3.42;0.77;;;4.10;99.90;;;;;;5004916;28;20128;-77
2022/03/28 04:43:06;;;;;;;5.70;1.38;;;4.10;99.90;;;;;;4976851;28;20029;-77
2022/03/28 04:45:32;;;;;;;7.50;1.48;;;4.10;99.90;;;;;;4993447;28;20034;-76
2022/03/28 04:47:58;;;;;;;3.97;0.70;;;4.10;99.90;;;;;;5011371;28;20033;-78
2022/03/28 04:50:24;;;;;;;4.72;1.10;;;4.10;99.90;;;;;;5008595;28;20047;-77
2022/03/28 04:52:50;;;;;;;5.35;0.77;;;4.10;99.90;;;;;;5009704;28;20049;-78
2022/03/28 04:55:16;;;;;;;3.90;1.13;;;4.00;99.90;;;;;;4993035;28;20040;-78
2022/03/28 04:57:41;;;;;;;3.80;0.93;;;3.90;99.90;;;;;;5003794;28;20413;-77
2022/03/28 05:00:09;;;;;;;5.63;1.15;;;3.90;99.90;;;;;;5009853;28;20041;-77
2022/03/28 05:02:36;;;;;;;5.85;1.27;;;3.90;99.90;;;;;;4960333;28;20060;-77
2022/03/28 05:05:03;;;;;;;5.40;1.17;;;3.90;99.90;;;;;;5003785;28;20033;-77
2022/03/28 05:07:30;;;;;;;6.10;1.35;;;3.90;99.90;;;;;;4993101;28;20021;-76
2022/03/28 05:09:56;;;;;;;6.47;1.10;;;3.90;99.90;;;;;;4992568;28;20033;-77
2022/03/28 05:12:25;;;;;;;7.13;1.38;;;3.90;99.90;;;;;;5010302;28;20033;-78
2022/03/28 05:14:52;;;;;;;4.05;1.35;;;3.90;99.90;;;;;;4971186;28;20035;-77
2022/03/28 05:17:22;;;;;;;3.28;0.90;;;3.80;99.90;;;;;;4993547;28;20033;-78
2022/03/28 05:19:49;;;;;;;4.95;1.00;;;3.80;99.90;;;;;;5011107;28;20037;-76
2022/03/28 05:22:14;;;;;;;3.08;1.20;;;3.90;99.90;;;;;;5010622;28;20053;-77
2022/03/28 05:24:40;;;;;;;5.68;1.50;;;3.90;99.90;;;;;;4991988;28;20034;-77
2022/03/28 05:27:06;;;;;;;3.78;1.35;;;3.80;99.90;;;;;;4994123;28;20037;-76
2022/03/28 05:29:31;;;;;;;6.55;1.10;;;3.70;99.90;;;;;;4993527;28;20550;-77
2022/03/28 05:31:57;;;;;;;3.63;1.00;;;3.70;99.90;;;;;;5004281;28;20037;-77
2022/03/28 05:34:23;;;;;;;3.05;1.10;;;3.80;99.90;;;;;;4993289;28;20038;-78
2022/03/28 05:36:49;;;;;;;2.80;0.90;;;3.70;99.90;;;;;;4991792;28;20079;-77
2022/03/28 05:39:15;;;;;;;4.85;1.38;;;3.80;99.90;;;;;;4998638;28;20044;-77
2022/03/28 05:41:41;;;;;;;4.15;1.40;;;3.70;99.90;;;;;;4998391;28;20034;-77
2022/03/28 05:44:07;;;;;;;2.88;0.90;;;3.80;99.90;;;;;;5009215;28;20046;-78
2022/03/28 05:46:32;;;;;;;3.72;0.90;;;3.80;99.90;;;;;;4980211;28;20073;-78
2022/03/28 05:48:58;;;;;;;2.33;0.80;;;3.80;99.90;;;;;;5009911;28;20026;-77
2022/03/28 05:51:24;;;;;;;4.68;0.73;;;3.90;99.90;;;;;;5009946;28;20465;-77
2022/03/28 05:53:49;;;;;;;2.00;0.80;;;3.80;99.90;;;;;;5008548;28;20482;-76
2022/03/28 05:56:15;;;;;;;2.20;0.70;;;3.80;99.90;;;;;;5009806;28;20482;-78
2022/03/28 05:58:41;;;;;;;3.78;1.40;;;3.80;99.90;;;;;;4995078;28;20038;-78
2022/03/28 06:01:08;;;;;;;4.70;1.63;;;3.60;99.90;;;;;;4990960;28;20044;-78
2022/03/28 06:03:34;;;;;;;2.58;0.77;;;3.70;99.90;;;;;;5009688;28;20509;-77
2022/03/28 06:06:03;;;;;;;2.70;0.80;;;3.70;99.90;;;;;;4975751;28;20029;-77
2022/03/28 06:08:28;;;;;;;2.25;0.70;;;3.70;99.90;;;;;;5009571;28;20034;-78
2022/03/28 06:10:55;;;;;;;3.63;1.02;;;3.80;99.90;;;;;;5006991;28;20049;-76
2022/03/28 06:13:25;;;;;;;4.78;1.88;;;3.70;99.90;;;;;;4980093;28;20045;-79
2022/03/28 06:15:51;;;;;;;;;;;3.70;99.90;;;;;;5017130;28;20029;-77
2022/03/28 06:18:16;;;;;;;1.70;0.60;;;3.70;99.90;;;;;;5017786;28;19967;-78
2022/03/28 06:20:42;;;;;;;6.43;1.40;;;3.80;99.90;;;;;;5016688;28;20065;-78
2022/03/28 06:23:09;;;;;;;4.35;1.98;;;3.70;99.90;;;;;;4983263;28;20033;-79
2022/03/28 06:25:35;;;;;;;3.15;1.13;;;3.60;99.90;;;;;;4999997;28;20037;-78
2022/03/28 06:28:01;;;;;;;3.65;1.80;;;3.50;99.90;;;;;;5000206;28;20110;-77
2022/03/28 06:30:26;;;;;;;2.80;0.93;;;3.60;99.90;;;;;;5000388;28;20033;-78
2022/03/28 06:32:52;;;;;;;1.52;0.55;;;3.70;99.90;;;;;;4999373;28;20047;-78
2022/03/28 06:35:18;;;;;;;3.30;0.93;;;3.70;99.90;;;;;;5015783;28;20064;-77
2022/03/28 06:37:43;;;;;;;2.58;0.82;;;3.80;99.90;;;;;;4978363;28;20120;-78
2022/03/28 06:40:10;;;;;;;3.28;1.20;;;3.90;99.90;;;;;;5000170;28;20049;-77
2022/03/28 06:42:35;;;;;;;2.50;0.80;;;3.90;99.90;;;;;;5016167;28;20541;-77
2022/03/28 06:45:02;;;;;;;2.60;1.10;;;4.00;99.90;;;;;;5005158;28;20030;-77
2022/03/28 06:47:28;;;;;;;3.58;1.10;;;4.00;99.90;;;;;;4993408;28;20069;-77
2022/03/28 06:49:54;;;;;;;2.88;1.35;;;4.00;99.90;;;;;;5003165;28;20160;-78
2022/03/28 06:52:19;;;;;;;3.42;1.25;;;4.00;99.90;;;;;;5019146;28;20063;-77
2022/03/28 06:54:45;;;;;;;2.78;1.10;;;4.10;99.90;;;;;;5002151;28;20037;-77
2022/03/28 06:57:10;;;;;;;4.38;1.63;;;4.00;99.90;;;;;;5018031;28;20029;-76
2022/03/28 06:59:36;;;;;;;4.50;1.52;;;4.10;99.90;;;;;;5001508;28;20025;-76
2022/03/28 07:02:02;;;;;;;4.95;2.20;;;4.10;99.90;;;;;;5002386;28;20037;-77
2022/03/28 07:04:28;;;;;;;3.42;1.50;;;4.20;99.90;;;;;;5019246;28;20108;-76
2022/03/28 07:06:53;;;;;;;4.75;2.92;;;4.10;99.90;;;;;;4996249;28;20033;-77
2022/03/28 07:09:19;;;;;;;5.97;3.70;;;4.00;99.90;;;;;;5018794;28;20029;-76
2022/03/28 07:11:45;;;;;;;5.25;2.95;;;4.10;99.90;;;;;;5018617;28;20056;-77
2022/03/28 07:14:11;;;;;;;5.30;2.45;;;4.30;99.90;;;;;;5003276;28;20041;-76
2022/03/28 07:16:37;;;;;;;2.75;1.20;;;4.30;99.90;;;;;;5016531;28;20049;-78
2022/03/28 07:19:03;;;;;;;4.78;2.05;;;4.40;99.90;;;;;;5003406;28;20462;-77
2022/03/28 07:21:29;;;;;;;7.05;3.97;;;4.30;99.90;;;;;;5008384;28;20049;-77
2022/03/28 07:23:55;;;;;;;4.90;2.47;;;4.20;99.90;;;;;;4984887;28;20535;-77
2022/03/28 07:26:21;;;;;;;7.60;4.03;;;4.30;99.90;;;;;;4995386;28;20614;-77
2022/03/28 07:28:47;;;;;;;4.28;2.08;;;4.20;99.90;;;;;;5001709;28;20029;-78
2022/03/28 07:31:13;;;;;;;3.92;1.77;;;4.40;99.90;;;;;;5001367;28;20383;-77
2022/03/28 07:33:40;;;;;;;3.67;1.42;;;4.50;99.90;;;;;;5000966;28;20040;-77
2022/03/28 07:36:07;;;;;;;4.28;1.70;;;4.70;99.90;;;;;;5001628;28;20513;-81
2022/03/28 07:38:34;;;;;;;2.40;1.05;;;4.80;99.90;;;;;;4994539;28;20041;-78
2022/03/28 07:41:00;;;;;;;5.18;2.10;;;5.00;99.90;;;;;;5001551;28;20773;-77
2022/03/28 07:43:26;;;;;;;3.60;1.00;;;4.90;99.90;;;;;;4996670;28;20116;-78
2022/03/28 07:45:54;;;;;;;6.28;2.85;;;5.00;99.90;;;;;;4996866;28;20034;-78
2022/03/28 07:48:21;;;;;;;4.32;1.85;;;5.00;99.90;;;;;;5001596;28;20025;-76
2022/03/28 07:50:47;;;;;;;6.65;3.60;;;5.10;99.90;;;;;;5020398;28;20033;-76
2022/03/28 07:53:14;;;;;;;5.43;2.33;;;5.00;99.90;;;;;;5001811;28;20041;-76
2022/03/28 07:55:41;;;;;;;3.28;1.95;;;5.20;99.90;;;;;;4996700;28;20033;-76
2022/03/28 07:58:07;;;;;;;4.22;2.30;;;5.40;99.90;;;;;;4979972;28;20053;-76
2022/03/28 08:00:33;;;;;;;4.75;2.00;;;5.30;99.90;;;;;;5013346;28;20064;-75
2022/03/28 08:02:59;;;;;;;5.15;1.98;;;5.40;99.90;;;;;;5019922;28;20219;-78
2022/03/28 08:05:26;;;;;;;6.25;2.83;;;5.60;99.90;;;;;;5019218;28;20064;-77
2022/03/28 08:07:53;;;;;;;4.80;1.98;;;5.80;99.90;;;;;;5001104;28;20041;-76
2022/03/28 08:10:20;;;;;;;4.05;1.80;;;5.90;99.90;;;;;;5001274;28;20029;-76
2022/03/28 08:12:46;;;;;;;3.70;2.20;;;5.90;99.90;;;;;;4986391;28;20080;-77
2022/03/28 08:15:13;;;;;;;3.67;1.80;;;6.00;99.90;;;;;;5017690;28;20667;-78
2022/03/28 08:17:41;;;;;;;4.78;2.58;;;6.10;99.90;;;;;;5017072;28;20026;-77
2022/03/28 08:20:09;;;;;;;7.57;3.85;;;5.80;99.90;;;;;;5002605;28;20063;-76
2022/03/28 08:22:36;;;;;;;6.70;2.88;;;5.70;99.90;;;;;;4979389;28;20029;-77
2022/03/28 08:25:03;;;;;;;6.55;2.53;;;5.90;99.90;;;;;;5008320;28;20053;-76
2022/03/28 08:27:28;;;;;;;4.88;2.47;;;6.10;99.90;;;;;;5001107;28;20038;-77
2022/03/28 08:29:54;;;;;;;2.33;0.70;;;6.20;99.90;;;;;;4995737;28;20041;-77
2022/03/28 08:32:19;;;;;;;5.45;2.90;;;6.40;99.90;;;;;;5001726;28;20656;-78
2022/03/28 08:34:48;;;;;;;6.38;3.00;;;6.20;99.90;;;;;;5003037;28;20037;-79
2022/03/28 08:37:16;;;;;;;4.90;2.63;;;6.30;99.90;;;;;;4961153;28;20124;-77
2022/03/28 08:39:43;;;;;;;4.68;2.15;;;6.50;99.90;;;;;;5016884;28;20029;-77
2022/03/28 08:42:11;;;;;;;4.25;1.92;;;6.70;99.90;;;;;;5017433;28;20772;-77
2022/03/28 08:44:38;;;;;;;7.75;4.13;;;6.80;99.90;;;;;;4977082;28;20022;-77
2022/03/28 08:47:04;;;;;;;5.35;2.95;;;6.60;99.90;;;;;;5000338;28;20375;-78
2022/03/28 08:49:30;;;;;;;6.43;3.42;;;6.80;99.90;;;;;;4994397;28;20391;-77
2022/03/28 08:51:56;;;;;;;4.93;2.40;;;6.90;99.90;;;;;;5019867;28;20410;-77
2022/03/28 08:54:21;;;;;;;5.60;2.83;;;7.00;99.90;;;;;;5006330;28;20051;-77
2022/03/28 08:56:47;;;;;;;5.78;2.35;;;7.20;99.90;;;;;;5000556;28;20449;-77
2022/03/28 08:59:13;;;;;;;5.95;3.67;;;7.00;99.90;;;;;;4982436;28;20045;-78
2022/03/28 09:01:39;;;;;;;10.25;5.57;;;6.80;99.90;;;;;;5015875;28;20138;-76
2022/03/28 09:04:09;;;;;;;13.30;7.70;;;6.60;99.90;;;;;;4994702;28;20455;-78
2022/03/28 09:06:39;;;;;;;8.95;4.45;;;6.50;99.90;;;;;;5005759;28;20041;-78
2022/03/28 09:09:09;;;;;;;;;;;7.10;99.90;;;;;;4993475;28;20529;-77
2022/03/28 09:11:34;;;;;;;4.70;2.80;;;7.20;99.90;;;;;;4998179;28;19916;-79
2022/03/28 09:14:00;;;;;;;10.25;5.50;;;7.10;99.90;;;;;;4999676;28;20025;-78
2022/03/28 09:16:29;;;;;;;10.05;4.13;;;6.80;99.90;;;;;;4981879;28;20044;-78
2022/03/28 09:18:56;;;;;;;10.07;6.17;;;7.00;99.90;;;;;;5017890;28;20061;-78
2022/03/28 09:21:24;;;;;;;7.45;3.97;;;7.00;99.90;;;;;;4998335;28;20044;-78
2022/03/28 09:23:51;;;;;;;8.00;4.10;;;7.50;99.90;;;;;;5019440;28;20030;-77
2022/03/28 09:26:18;;;;;;;6.63;3.25;;;7.70;99.90;;;;;;5002643;28;20033;-78
2022/03/28 09:28:56;;;;;;;6.43;3.97;;;7.70;99.90;;;;;;4977207;28;20493;-77
2022/03/28 09:31:34;;;;;;;8.68;4.65;;;8.00;99.90;;;;;;4975970;28;20037;-77
2022/03/28 09:34:10;;;;;;;10.35;6.07;;;7.80;99.90;;;;;;4998072;28;20029;-77
2022/03/28 09:36:38;;;;;;;8.95;6.00;;;7.50;99.90;;;;;;4994990;28;20109;-77
2022/03/28 09:39:06;;;;;;;10.55;6.82;;;7.70;99.90;;;;;;5002764;28;20640;-78
2022/03/28 09:41:32;;;;;;;11.88;6.43;;;7.60;99.90;;;;;;4986338;28;20065;-78
2022/03/28 09:43:58;;;;;;;8.57;4.43;;;7.80;99.90;;;;;;4998248;28;20062;-78
2022/03/28 09:46:32;;;;;;;6.97;3.22;;;8.30;99.90;;;;;;5003649;28;20029;-78
2022/03/28 09:48:59;;;;;;;6.32;3.88;;;8.50;99.90;;;;;;5000690;28;20401;-77
2022/03/28 09:51:30;;;;;;;10.48;6.15;;;8.40;99.90;;;;;;5001805;28;20030;-78
2022/03/28 09:53:58;;;;;;;12.38;7.25;;;8.00;99.90;;;;;;5003899;28;20436;-78
2022/03/28 09:56:23;;;;;;;9.60;5.05;;;8.10;99.90;;;;;;5021455;28;20029;-79
2022/03/28 09:58:56;;;;;;;9.52;5.15;;;8.50;99.90;;;;;;5016831;28;20036;-78
2022/03/28 10:01:30;;;;;;;8.63;5.65;;;8.70;99.90;;;;;;5017287;28;20132;-78
2022/03/28 10:04:05;;;;;;;8.32;4.50;;;8.60;99.90;;;;;;5000575;28;20037;-78
2022/03/28 10:06:31;;;;;;;10.52;5.93;;;8.60;99.90;;;;;;5017320;28;20430;-78
2022/03/28 10:08:57;;;;;;;9.68;4.95;;;8.50;99.90;;;;;;5016180;28;20038;-77
2022/03/28 10:11:25;;;;;;;8.32;4.80;;;8.60;99.90;;;;;;5016265;28;20440;-78
2022/03/28 10:13:51;;;;;;;6.55;3.35;;;9.10;99.90;;;;;;5017605;28;20120;-78
2022/03/28 10:16:17;;;;;;;8.25;4.78;;;9.40;99.90;;;;;;5005927;28;20041;-77
2022/03/28 10:18:46;;;;;;;9.18;5.15;;;9.00;99.90;;;;;;4997201;28;20445;-78
2022/03/28 10:21:22;;;;;;;9.95;5.32;;;9.10;99.90;;;;;;4981180;28;20052;-78
2022/03/28 10:24:08;;;;;;;12.15;7.13;;;9.20;99.90;;;;;;5001656;28;20035;-77
2022/03/28 10:26:39;;;;;;;11.32;6.97;;;8.80;99.90;;;;;;4996427;28;20088;-77
2022/03/28 10:29:17;;;;;;;13.30;8.02;;;9.20;99.90;;;;;;5003242;28;20036;-79
2022/03/28 10:31:55;;;;;;;12.73;6.93;;;9.20;99.90;;;;;;4989987;28;20060;-78
2022/03/28 10:34:49;;;;;;;14.57;8.95;;;9.10;99.90;;;;;;5000639;28;20340;-78
2022/03/28 10:37:32;;;;;;;13.57;8.43;;;9.00;99.90;;;;;;5002134;28;20041;-78
2022/03/28 10:40:21;;;;;;;18.02;10.43;;;8.80;99.90;;;;;;5019928;28;20076;-78
2022/03/28 10:43:12;;;;;;;14.77;8.30;;;9.00;99.90;;;;;;4985426;28;20663;-78
2022/03/28 10:45:49;;;;;;;9.95;5.50;;;9.30;99.90;;;;;;5019203;28;20295;-78
2022/03/28 10:48:16;;;;;;;8.90;4.40;;;9.90;99.90;;;;;;4996860;28;20493;-77
2022/03/28 10:50:50;;;;;;;9.93;6.05;;;10.30;99.90;;;;;;4979281;28;20029;-77
2022/03/28 10:53:29;;;;;;;10.85;6.05;;;10.50;99.90;;;;;;4996037;28;20049;-77
2022/03/28 10:56:01;;;;;;;15.48;7.75;;;10.60;99.90;;;;;;5019002;28;20037;-78
2022/03/28 10:58:31;;;;;;;17.63;9.40;;;10.40;99.90;;;;;;5012575;28;20039;-77
2022/03/28 11:01:06;;;;;;;10.10;6.80;;;9.90;99.90;;;;;;5019251;28;20128;-77
2022/03/28 11:03:58;;;;;;;9.65;6.55;;;10.50;99.90;;;;;;4977809;28;20025;-77
2022/03/28 11:07:01;;;;;;;8.05;4.82;;;11.00;99.90;;;;;;5000708;28;20046;-79
2022/03/28 11:09:51;;;;;;;14.68;7.55;;;11.40;99.90;;;;;;5019186;28;20034;-77
2022/03/28 11:12:40;;;;;;;16.25;9.30;;;11.50;99.90;;;;;;5007720;28;20048;-78
2022/03/28 11:15:19;;;;;;;12.98;6.95;;;11.10;99.90;;;;;;5003037;28;20033;-78
2022/03/28 11:17:58;;;;;;;11.15;7.72;;;11.30;99.90;;;;;;4979751;28;20481;-81
2022/03/28 11:20:25;;;;;;;11.73;6.75;;;11.10;99.90;;;;;;4980202;28;20069;-78
2022/03/28 11:23:11;;;;;;;10.65;6.15;;;11.40;99.90;;;;;;5018511;28;20033;-79
2022/03/28 11:25:37;;;;;;;9.15;5.45;;;11.80;99.90;;;;;;5018544;28;20615;-78
2022/03/28 11:28:09;;;;;;;7.10;4.20;;;12.10;99.90;;;;;;4985303;28;20520;-79
2022/03/28 11:30:49;;;;;;;10.50;6.82;;;12.20;99.90;;;;;;4979508;28;20540;-78
2022/03/28 11:33:30;;;;;;;8.80;5.25;;;12.00;99.90;;;;;;5019987;28;20101;-78
2022/03/28 11:35:57;;;;;;;9.57;4.97;;;12.10;99.90;;;;;;4996103;28;20385;-78
2022/03/28 11:38:25;;;;;;;6.78;3.97;;;12.30;99.90;;;;;;5012227;28;20825;-77
2022/03/28 11:40:51;;;;;;;5.00;3.53;;;12.50;99.90;;;;;;5020338;28;20038;-78
2022/03/28 11:43:17;;;;;;;4.55;2.60;;;12.60;99.90;;;;;;5009160;28;20189;-78
2022/03/28 11:45:47;;;;;;;14.45;8.95;;;12.70;99.90;;;;;;5013257;28;20531;-78
2022/03/28 11:48:17;;;;;;;14.95;9.30;;;11.90;99.90;;;;;;5001784;28;20032;-78
2022/03/28 11:50:43;;;;;;;;;;;12.10;99.90;;;;;;4997546;28;20379;-78
2022/03/28 11:53:12;;;;;;;12.63;7.82;;;12.40;99.90;;;;;;4958893;28;19929;-78
2022/03/28 11:55:45;;;;;;;13.35;7.90;;;12.20;99.90;;;;;;4976984;28;20478;-78
2022/03/28 11:58:17;;;;;;;10.55;6.07;;;12.80;99.90;;;;;;5018870;28;20037;-77
2022/03/28 12:00:50;;;;;;;6.50;4.03;;;12.90;99.90;;;;;;5020269;28;20043;-78
2022/03/28 12:03:17;;;;;;;7.90;5.18;;;13.10;99.90;;;;;;4980660;28;20520;-77
2022/03/28 12:05:45;;;;;;;8.45;4.10;;;12.90;99.90;;;;;;5019109;28;20115;-78
2022/03/28 12:08:18;;;;;;;6.38;4.53;;;13.30;99.90;;;;;;4996582;28;20733;-78
2022/03/28 12:10:51;;;;;;;6.47;4.38;;;13.30;99.90;;;;;;5001895;28;20163;-78
2022/03/28 12:13:19;;;;;;;6.95;4.75;;;13.60;99.90;;;;;;4980430;28;20026;-78
2022/03/28 12:15:47;;;;;;;9.43;5.30;;;13.60;99.90;;;;;;5000880;28;20303;-78
2022/03/28 12:18:17;;;;;;;7.50;3.92;;;13.50;99.90;;;;;;5017770;28;20105;-78
2022/03/28 12:20:45;;;;;;;9.93;6.72;;;14.00;99.90;;;;;;5018572;28;20052;-78
2022/03/28 12:23:14;;;;;;;9.80;5.45;;;13.70;99.90;;;;;;5000496;28;20314;-78
2022/03/28 12:25:48;;;;;;;8.43;4.95;;;13.90;99.90;;;;;;5000218;28;20033;-78
2022/03/28 12:28:26;;;;;;;8.65;5.82;;;14.20;99.90;;;;;;5016025;28;20033;-79
2022/03/28 12:30:55;;;;;;;9.45;4.72;;;14.10;99.90;;;;;;5015236;28;20299;-78
2022/03/28 12:33:43;;;;;;;8.85;4.85;;;14.40;99.90;;;;;;4999187;28;20388;-79
2022/03/28 12:36:21;;;;;;;9.18;5.30;;;14.40;99.90;;;;;;4998967;28;20042;-80
2022/03/28 12:38:58;;;;;;;9.45;5.50;;;14.50;99.90;;;;;;5016873;28;20029;-78
2022/03/28 12:41:23;;;;;;;13.75;5.97;;;14.50;99.90;;;;;;5015402;28;20041;-79
2022/03/28 12:43:52;;;;;;;15.80;8.00;;;14.80;99.90;;;;;;4982432;28;20037;-79
2022/03/28 12:46:18;;;;;;;13.70;6.47;;;14.40;99.90;;;;;;4993186;28;20057;-78
2022/03/28 12:48:46;;;;;;;9.88;5.57;;;14.70;99.90;;;;;;5000426;28;20053;-79
2022/03/28 12:51:29;;;;;;;10.30;6.10;;;14.90;99.90;;;;;;5016243;28;20025;-79
2022/03/28 12:54:05;;;;;;;9.00;6.35;;;14.40;99.90;;;;;;5000137;28;20046;-80
2022/03/28 12:57:04;;;;;;;9.48;5.53;;;14.70;99.90;;;;;;5017628;28;20041;-79
2022/03/28 12:59:32;;;;;;;8.07;5.00;;;15.00;99.90;;;;;;4969955;28;20080;-78